createdAt,value
2023-05-09T00:00:30.050Z,9.92
2023-05-09T00:01:09.439Z,9.92
2023-05-09T00:01:42.333Z,9.89
2023-05-09T00:02:14.568Z,9.90
2023-05-09T00:02:49.709Z,9.91
2023-05-09T00:03:21.972Z,9.90
2023-05-09T00:03:54.138Z,9.89
2023-05-09T00:04:29.504Z,9.90
2023-05-09T00:05:03.683Z,9.88
2023-05-09T00:05:35.856Z,9.89
2023-05-09T00:06:15.646Z,9.88
2023-05-09T00:06:47.800Z,9.87
2023-05-09T00:07:19.956Z,9.88
2023-05-09T00:07:54.728Z,9.90
2023-05-09T00:08:26.945Z,9.92
2023-05-09T00:08:59.249Z,9.92
2023-05-09T00:09:34.019Z,9.93
2023-05-09T00:10:07.422Z,9.93
2023-05-09T00:10:39.694Z,9.93
2023-05-09T00:11:14.386Z,9.93
2023-05-09T00:11:46.628Z,9.92
2023-05-09T00:12:18.769Z,9.93
2023-05-09T00:12:53.577Z,9.92
2023-05-09T00:13:26.251Z,9.93
2023-05-09T00:13:58.764Z,9.94
2023-05-09T00:14:33.730Z,9.94
2023-05-09T00:15:08.519Z,9.93
2023-05-09T00:15:40.669Z,9.93
2023-05-09T00:16:16.316Z,9.93
2023-05-09T00:16:48.595Z,9.91
2023-05-09T00:17:22.952Z,9.90
2023-05-09T00:17:57.777Z,9.89
2023-05-09T00:18:31.367Z,9.90
2023-05-09T00:19:03.698Z,9.90
2023-05-09T00:19:38.466Z,9.89
2023-05-09T00:20:12.651Z,9.89
2023-05-09T00:20:44.821Z,9.89
2023-05-09T00:21:19.639Z,9.89
2023-05-09T00:21:54.397Z,9.89
2023-05-09T00:22:26.688Z,9.89
2023-05-09T00:22:58.919Z,9.88
2023-05-09T00:23:33.646Z,9.89
2023-05-09T00:24:06.816Z,9.87
2023-05-09T00:24:39.078Z,9.88
2023-05-09T00:25:14.895Z,9.89
2023-05-09T00:25:47.516Z,9.87
2023-05-09T00:26:19.760Z,9.88
2023-05-09T00:26:55.187Z,9.88
2023-05-09T00:27:30.764Z,9.88
2023-05-09T00:28:02.928Z,9.87
2023-05-09T00:28:37.689Z,9.86
2023-05-09T00:29:09.838Z,9.85
2023-05-09T00:29:42.055Z,9.86
2023-05-09T00:30:16.986Z,9.87
2023-05-09T00:30:49.169Z,9.85
2023-05-09T00:31:21.791Z,9.87
2023-05-09T00:31:56.551Z,9.87
2023-05-09T00:32:29.397Z,9.87
2023-05-09T00:33:01.754Z,9.89
2023-05-09T00:33:36.571Z,9.89
2023-05-09T00:34:08.815Z,9.89
2023-05-09T00:34:41.344Z,9.89
2023-05-09T00:35:16.432Z,9.91
2023-05-09T00:35:48.843Z,9.91
2023-05-09T00:36:23.938Z,9.92
2023-05-09T00:36:56.312Z,9.91
2023-05-09T00:37:32.259Z,9.92
2023-05-09T00:38:04.487Z,9.91
2023-05-09T00:38:37.122Z,9.89
2023-05-09T00:39:12.722Z,9.89
2023-05-09T00:39:45.008Z,9.89
2023-05-09T00:40:17.244Z,9.88
2023-05-09T00:40:52.139Z,9.88
2023-05-09T00:41:24.264Z,9.87
2023-05-09T00:41:56.662Z,9.88
2023-05-09T00:42:28.917Z,9.88
2023-05-09T00:43:03.623Z,9.89
2023-05-09T00:43:35.907Z,9.88
2023-05-09T00:44:08.030Z,9.90
2023-05-09T00:44:40.291Z,9.91
2023-05-09T00:45:15.307Z,9.89
2023-05-09T00:45:48.479Z,9.89
2023-05-09T00:46:21.379Z,9.89
2023-05-09T00:46:56.246Z,9.90
2023-05-09T00:47:29.180Z,9.90
2023-05-09T00:48:01.564Z,9.89
2023-05-09T00:48:36.469Z,9.89
2023-05-09T00:49:08.723Z,9.88
2023-05-09T00:49:40.964Z,9.88
2023-05-09T00:50:16.386Z,9.89
2023-05-09T00:50:53.056Z,9.89
2023-05-09T00:51:29.456Z,9.89
2023-05-09T00:52:05.652Z,9.89
2023-05-09T00:52:38.916Z,9.89
2023-05-09T00:53:11.846Z,9.91
2023-05-09T00:53:47.304Z,9.89
2023-05-09T00:54:19.462Z,9.89
2023-05-09T00:54:52.073Z,9.88
2023-05-09T00:55:27.054Z,9.88
2023-05-09T00:56:00.744Z,9.88
2023-05-09T00:56:33.041Z,9.89
2023-05-09T00:57:07.820Z,9.89
2023-05-09T00:57:40.321Z,9.90
2023-05-09T00:58:13.126Z,9.89
2023-05-09T00:58:48.369Z,9.89
2023-05-09T00:59:21.136Z,9.89
2023-05-09T00:59:53.435Z,9.87
2023-05-09T01:00:28.561Z,9.89
2023-05-09T01:01:02.550Z,9.89
2023-05-09T01:01:34.890Z,9.89
2023-05-09T01:02:09.796Z,9.92
2023-05-09T01:02:42.827Z,9.92
2023-05-09T01:03:15.624Z,9.92
2023-05-09T01:03:50.821Z,9.93
2023-05-09T01:04:23.294Z,9.93
2023-05-09T01:04:56.215Z,9.94
2023-05-09T01:05:39.887Z,9.95
2023-05-09T01:06:21.165Z,9.92
2023-05-09T01:07:06.323Z,9.87
2023-05-09T01:07:46.496Z,9.87
2023-05-09T01:08:30.653Z,9.87
2023-05-09T01:09:10.768Z,9.85
2023-05-09T01:09:46.882Z,9.78
2023-05-09T01:10:29.880Z,9.79
2023-05-09T01:11:12.582Z,9.80
2023-05-09T01:11:50.724Z,9.81
2023-05-09T01:12:28.424Z,9.83
2023-05-09T01:13:08.835Z,9.83
2023-05-09T01:13:44.737Z,9.76
2023-05-09T01:14:30.323Z,9.78
2023-05-09T01:15:11.512Z,9.79
2023-05-09T01:15:51.560Z,9.80
2023-05-09T01:16:29.617Z,9.79
2023-05-09T01:17:13.771Z,9.81
2023-05-09T01:17:53.090Z,9.80
2023-05-09T01:18:31.326Z,9.80
2023-05-09T01:19:25.376Z,9.79
2023-05-09T01:20:05.792Z,9.76
2023-05-09T01:20:45.798Z,9.71
2023-05-09T01:21:24.440Z,9.71
2023-05-09T01:22:02.337Z,9.74
2023-05-09T01:22:39.235Z,9.75
2023-05-09T01:23:56.832Z,9.73
2023-05-09T01:24:52.239Z,9.69
2023-05-09T01:25:38.361Z,9.69
2023-05-09T01:26:21.918Z,9.70
2023-05-09T01:27:16.411Z,9.68
2023-05-09T01:27:57.861Z,9.67
2023-05-09T01:28:45.123Z,9.67
2023-05-09T01:29:36.668Z,9.65
2023-05-09T01:30:12.159Z,9.66
2023-05-09T01:30:49.689Z,9.68
2023-05-09T01:31:23.039Z,9.67
2023-05-09T01:31:57.331Z,9.68
2023-05-09T01:32:35.045Z,9.70
2023-05-09T01:33:08.341Z,9.69
2023-05-09T01:33:46.150Z,9.70
2023-05-09T01:34:23.468Z,9.71
2023-05-09T01:34:59.506Z,9.70
2023-05-09T01:35:33.596Z,9.70
2023-05-09T01:36:14.799Z,9.71
2023-05-09T01:36:50.391Z,9.71
2023-05-09T01:37:29.012Z,9.70
2023-05-09T01:38:06.903Z,9.70
2023-05-09T01:38:41.532Z,9.69
2023-05-09T01:39:14.538Z,9.72
2023-05-09T01:39:52.679Z,9.74
2023-05-09T01:40:30.099Z,9.74
2023-05-09T01:41:06.215Z,9.74
2023-05-09T01:41:39.042Z,9.74
2023-05-09T01:42:13.010Z,9.75
2023-05-09T01:42:50.157Z,9.76
2023-05-09T01:43:28.407Z,9.75
2023-05-09T01:44:03.814Z,9.74
2023-05-09T01:44:41.309Z,9.76
2023-05-09T01:45:18.290Z,9.76
2023-05-09T01:45:53.205Z,9.76
2023-05-09T01:46:27.502Z,9.77
2023-05-09T01:47:03.401Z,9.77
2023-05-09T01:47:37.676Z,9.77
2023-05-09T01:48:11.323Z,9.77
2023-05-09T01:48:47.850Z,9.77
2023-05-09T01:49:20.904Z,9.76
2023-05-09T01:49:54.339Z,9.77
2023-05-09T01:50:32.386Z,9.77
2023-05-09T01:51:05.830Z,9.74
2023-05-09T01:51:40.779Z,9.73
2023-05-09T01:52:17.490Z,9.73
2023-05-09T01:52:55.560Z,9.73
2023-05-09T01:53:29.665Z,9.71
2023-05-09T01:54:02.779Z,9.71
2023-05-09T01:54:38.924Z,9.69
2023-05-09T01:55:12.585Z,9.70
2023-05-09T01:55:46.595Z,9.71
2023-05-09T01:56:22.288Z,9.71
2023-05-09T01:56:55.950Z,9.73
2023-05-09T01:57:29.667Z,9.72
2023-05-09T01:58:04.263Z,9.72
2023-05-09T01:58:41.555Z,9.71
2023-05-09T01:59:16.450Z,9.69
2023-05-09T01:59:52.834Z,9.68
2023-05-09T02:00:28.408Z,9.69
2023-05-09T02:01:01.800Z,9.69
2023-05-09T02:01:35.351Z,9.71
2023-05-09T02:02:11.015Z,9.71
2023-05-09T02:02:44.217Z,9.71
2023-05-09T02:03:16.729Z,9.70
2023-05-09T02:03:53.884Z,9.72
2023-05-09T02:04:28.704Z,9.71
2023-05-09T02:05:01.902Z,9.70
2023-05-09T02:05:37.684Z,9.68
2023-05-09T02:06:11.259Z,9.66
2023-05-09T02:06:44.863Z,9.66
2023-05-09T02:07:20.380Z,9.66
2023-05-09T02:07:54.978Z,9.65
2023-05-09T02:08:27.884Z,9.66
2023-05-09T02:09:03.673Z,9.66
2023-05-09T02:09:36.158Z,9.66
2023-05-09T02:10:10.024Z,9.66
2023-05-09T02:10:46.477Z,9.68
2023-05-09T02:11:18.851Z,9.67
2023-05-09T02:11:51.208Z,9.69
2023-05-09T02:12:26.856Z,9.69
2023-05-09T02:12:59.074Z,9.70
2023-05-09T02:13:31.534Z,9.69
2023-05-09T02:14:03.735Z,9.71
2023-05-09T02:14:38.574Z,9.72
2023-05-09T02:15:13.707Z,9.73
2023-05-09T02:15:48.093Z,9.72
2023-05-09T02:16:25.411Z,9.71
2023-05-09T02:16:57.824Z,9.71
2023-05-09T02:17:31.060Z,9.71
2023-05-09T02:18:06.025Z,9.72
2023-05-09T02:18:39.798Z,9.70
2023-05-09T02:19:11.996Z,9.72
2023-05-09T02:19:47.050Z,9.73
2023-05-09T02:20:20.383Z,9.72
2023-05-09T02:20:52.749Z,9.71
2023-05-09T02:21:29.202Z,9.72
2023-05-09T02:22:02.292Z,9.71
2023-05-09T02:22:34.454Z,9.71
2023-05-09T02:23:09.439Z,9.72
2023-05-09T02:23:41.723Z,9.70
2023-05-09T02:24:14.376Z,9.69
2023-05-09T02:24:49.241Z,9.68
2023-05-09T02:25:23.490Z,9.69
2023-05-09T02:25:56.262Z,9.68
2023-05-09T02:26:32.044Z,9.69
2023-05-09T02:27:05.497Z,9.69
2023-05-09T02:27:39.413Z,9.69
2023-05-09T02:28:14.839Z,9.68
2023-05-09T02:28:47.865Z,9.67
2023-05-09T02:29:28.608Z,9.67
2023-05-09T02:30:07.670Z,9.66
2023-05-09T02:30:44.613Z,9.64
2023-05-09T02:31:20.530Z,9.62
2023-05-09T02:31:56.188Z,9.62
2023-05-09T02:32:31.784Z,9.62
2023-05-09T02:33:06.799Z,9.61
2023-05-09T02:33:42.567Z,9.62
2023-05-09T02:34:15.497Z,9.62
2023-05-09T02:34:49.261Z,9.63
2023-05-09T02:35:25.618Z,9.63
2023-05-09T02:35:58.290Z,9.63
2023-05-09T02:36:31.800Z,9.64
2023-05-09T02:37:06.668Z,9.65
2023-05-09T02:37:42.901Z,9.66
2023-05-09T02:38:16.028Z,9.65
2023-05-09T02:38:50.916Z,9.67
2023-05-09T02:39:23.155Z,9.66
2023-05-09T02:39:55.973Z,9.67
2023-05-09T02:40:32.387Z,9.67
2023-05-09T02:41:04.676Z,9.66
2023-05-09T02:41:36.986Z,9.66
2023-05-09T02:42:13.214Z,9.67
2023-05-09T02:42:45.561Z,9.66
2023-05-09T02:43:17.699Z,9.67
2023-05-09T02:43:52.421Z,9.68
2023-05-09T02:44:24.621Z,9.66
2023-05-09T02:44:56.900Z,9.67
2023-05-09T02:45:29.180Z,9.68
2023-05-09T02:46:06.770Z,9.68
2023-05-09T02:46:39.098Z,9.66
2023-05-09T02:47:11.458Z,9.68
2023-05-09T02:47:46.381Z,9.68
2023-05-09T02:48:18.716Z,9.69
2023-05-09T02:48:51.619Z,9.70
2023-05-09T02:49:32.144Z,9.71
2023-05-09T02:50:09.552Z,9.69
2023-05-09T02:50:43.641Z,9.68
2023-05-09T02:51:16.033Z,9.70
2023-05-09T02:51:50.794Z,9.71
2023-05-09T02:52:23.096Z,9.70
2023-05-09T02:52:55.258Z,9.72
2023-05-09T02:53:30.045Z,9.73
2023-05-09T02:54:02.334Z,9.73
2023-05-09T02:54:34.713Z,9.74
2023-05-09T02:55:11.110Z,9.76
2023-05-09T02:55:45.682Z,9.74
2023-05-09T02:56:20.990Z,9.74
2023-05-09T02:56:53.228Z,9.74
2023-05-09T02:57:25.420Z,9.75
2023-05-09T02:58:12.065Z,9.76
2023-05-09T02:58:51.546Z,9.73
2023-05-09T02:59:24.127Z,9.73
2023-05-09T02:59:56.746Z,9.72
2023-05-09T03:00:31.631Z,9.73
2023-05-09T03:01:06.472Z,9.73
2023-05-09T03:01:38.750Z,9.73
2023-05-09T03:02:13.770Z,9.73
2023-05-09T03:02:47.379Z,9.73
2023-05-09T03:03:23.635Z,9.73
2023-05-09T03:03:59.090Z,9.73
2023-05-09T03:04:31.332Z,9.73
2023-05-09T03:05:04.026Z,9.73
2023-05-09T03:05:38.836Z,9.72
2023-05-09T03:06:11.112Z,9.72
2023-05-09T03:06:43.285Z,9.72
2023-05-09T03:07:18.206Z,9.73
2023-05-09T03:07:51.560Z,9.72
2023-05-09T03:08:23.739Z,9.73
2023-05-09T03:08:58.466Z,9.75
2023-05-09T03:09:31.159Z,9.74
2023-05-09T03:10:03.869Z,9.75
2023-05-09T03:10:39.618Z,9.74
2023-05-09T03:11:11.808Z,9.74
2023-05-09T03:11:44.488Z,9.75
2023-05-09T03:12:16.683Z,9.78
2023-05-09T03:12:51.450Z,9.80
2023-05-09T03:13:24.349Z,9.79
2023-05-09T03:13:56.578Z,9.81
2023-05-09T03:14:31.612Z,9.82
2023-05-09T03:15:04.837Z,9.82
2023-05-09T03:15:37.048Z,9.83
2023-05-09T03:16:17.706Z,9.83
2023-05-09T03:16:50.766Z,9.82
2023-05-09T03:17:30.824Z,9.75
2023-05-09T03:18:05.825Z,9.74
2023-05-09T03:18:38.030Z,9.76
2023-05-09T03:19:10.737Z,9.78
2023-05-09T03:19:42.916Z,9.79
2023-05-09T03:20:18.386Z,9.78
2023-05-09T03:20:50.570Z,9.79
2023-05-09T03:21:22.803Z,9.79
2023-05-09T03:21:58.119Z,9.78
2023-05-09T03:22:30.899Z,9.78
2023-05-09T03:23:07.284Z,9.78
2023-05-09T03:23:42.309Z,9.78
2023-05-09T03:24:14.567Z,9.79
2023-05-09T03:24:46.817Z,9.80
2023-05-09T03:25:22.495Z,9.80
2023-05-09T03:25:54.773Z,9.80
2023-05-09T03:26:26.927Z,9.81
2023-05-09T03:27:02.760Z,9.82
2023-05-09T03:27:34.992Z,9.82
2023-05-09T03:28:08.345Z,9.83
2023-05-09T03:28:43.469Z,9.84
2023-05-09T03:29:15.708Z,9.84
2023-05-09T03:29:47.855Z,9.86
2023-05-09T03:30:23.826Z,9.87
2023-05-09T03:30:56.898Z,9.88
2023-05-09T03:31:36.294Z,9.87
2023-05-09T03:32:12.053Z,9.88
2023-05-09T03:32:45.545Z,9.87
2023-05-09T03:33:17.923Z,9.87
2023-05-09T03:33:52.720Z,9.86
2023-05-09T03:34:25.205Z,9.88
2023-05-09T03:34:57.566Z,9.87
2023-05-09T03:35:33.311Z,9.88
2023-05-09T03:36:08.906Z,9.88
2023-05-09T03:36:42.593Z,9.86
2023-05-09T03:37:17.081Z,9.86
2023-05-09T03:37:52.184Z,9.86
2023-05-09T03:38:24.643Z,9.88
2023-05-09T03:38:57.054Z,9.89
2023-05-09T03:39:32.034Z,9.91
2023-05-09T03:40:06.248Z,9.93
2023-05-09T03:40:44.241Z,9.91
2023-05-09T03:41:20.765Z,9.93
2023-05-09T03:41:53.796Z,9.95
2023-05-09T03:42:26.039Z,9.98
2023-05-09T03:43:04.607Z,9.98
2023-05-09T03:43:37.463Z,9.98
2023-05-09T03:44:09.584Z,9.99
2023-05-09T03:44:44.367Z,10.01
2023-05-09T03:45:16.810Z,10.00
2023-05-09T03:45:50.832Z,10.01
2023-05-09T03:46:25.778Z,10.02
2023-05-09T03:47:00.784Z,10.02
2023-05-09T03:47:37.695Z,10.00
2023-05-09T03:48:12.902Z,10.00
2023-05-09T03:48:50.766Z,10.00
2023-05-09T03:49:23.211Z,10.01
2023-05-09T03:50:00.849Z,10.02
2023-05-09T03:50:33.285Z,10.02
2023-05-09T03:51:05.801Z,10.02
2023-05-09T03:51:44.771Z,10.02
2023-05-09T03:52:20.579Z,10.02
2023-05-09T03:52:55.408Z,10.03
2023-05-09T03:53:30.213Z,10.05
2023-05-09T03:54:02.625Z,10.06
2023-05-09T03:54:35.154Z,10.08
2023-05-09T03:55:12.281Z,10.09
2023-05-09T03:55:44.599Z,10.09
2023-05-09T03:56:18.801Z,10.10
2023-05-09T03:56:58.009Z,10.09
2023-05-09T03:57:30.157Z,10.09
2023-05-09T03:58:03.478Z,10.10
2023-05-09T03:58:39.764Z,10.10
2023-05-09T03:59:11.928Z,10.11
2023-05-09T03:59:44.278Z,10.10
2023-05-09T04:00:22.079Z,10.11
2023-05-09T04:01:04.730Z,10.09
2023-05-09T04:01:40.307Z,10.10
2023-05-09T04:02:16.167Z,10.11
2023-05-09T04:02:50.318Z,10.12
2023-05-09T04:03:34.434Z,10.12
2023-05-09T04:04:07.890Z,10.13
2023-05-09T04:04:41.297Z,10.14
2023-05-09T04:05:16.903Z,10.15
2023-05-09T04:05:49.497Z,10.17
2023-05-09T04:06:31.561Z,10.16
2023-05-09T04:07:06.971Z,10.17
2023-05-09T04:07:39.196Z,10.19
2023-05-09T04:08:11.641Z,10.20
2023-05-09T04:08:46.517Z,10.20
2023-05-09T04:09:18.842Z,10.21
2023-05-09T04:09:52.609Z,10.20
2023-05-09T04:10:28.257Z,10.20
2023-05-09T04:11:00.751Z,10.18
2023-05-09T04:11:32.969Z,10.20
2023-05-09T04:12:09.253Z,10.19
2023-05-09T04:12:41.486Z,10.19
2023-05-09T04:13:13.775Z,10.20
2023-05-09T04:13:49.354Z,10.21
2023-05-09T04:14:37.025Z,10.11
2023-05-09T04:15:11.253Z,10.13
2023-05-09T04:15:46.278Z,10.15
2023-05-09T04:16:18.582Z,10.16
2023-05-09T04:16:50.880Z,10.18
2023-05-09T04:17:28.341Z,10.18
2023-05-09T04:18:00.630Z,10.19
2023-05-09T04:18:32.934Z,10.19
2023-05-09T04:19:08.205Z,10.19
2023-05-09T04:19:41.166Z,10.19
2023-05-09T04:20:13.694Z,10.19
2023-05-09T04:20:50.746Z,10.20
2023-05-09T04:21:22.928Z,10.21
2023-05-09T04:21:58.893Z,10.22
2023-05-09T04:22:33.629Z,10.24
2023-05-09T04:23:06.248Z,10.27
2023-05-09T04:23:39.116Z,10.28
2023-05-09T04:24:14.514Z,10.29
2023-05-09T04:24:49.064Z,10.29
2023-05-09T04:25:21.386Z,10.31
2023-05-09T04:25:57.113Z,10.33
2023-05-09T04:26:31.426Z,10.35
2023-05-09T04:27:04.953Z,10.35
2023-05-09T04:27:39.850Z,10.38
2023-05-09T04:28:12.157Z,10.38
2023-05-09T04:28:44.697Z,10.41
2023-05-09T04:29:21.348Z,10.41
2023-05-09T04:29:58.150Z,10.40
2023-05-09T04:30:30.905Z,10.40
2023-05-09T04:31:06.794Z,10.42
2023-05-09T04:31:39.725Z,10.45
2023-05-09T04:32:13.842Z,10.46
2023-05-09T04:32:51.479Z,10.50
2023-05-09T04:33:24.639Z,10.51
2023-05-09T04:33:58.556Z,10.53
2023-05-09T04:34:34.558Z,10.54
2023-05-09T04:35:13.320Z,10.55
2023-05-09T04:35:48.953Z,10.57
2023-05-09T04:36:24.166Z,10.58
2023-05-09T04:36:56.355Z,10.59
2023-05-09T04:37:28.921Z,10.62
2023-05-09T04:38:05.031Z,10.63
2023-05-09T04:38:37.225Z,10.63
2023-05-09T04:39:13.143Z,10.64
2023-05-09T04:39:55.623Z,10.64
2023-05-09T04:40:33.667Z,10.65
2023-05-09T04:41:09.086Z,10.67
2023-05-09T04:41:43.947Z,10.68
2023-05-09T04:42:16.139Z,10.70
2023-05-09T04:42:50.991Z,10.71
2023-05-09T04:43:28.128Z,10.70
2023-05-09T04:44:00.440Z,10.71
2023-05-09T04:44:36.053Z,10.74
2023-05-09T04:45:11.921Z,10.75
2023-05-09T04:45:48.131Z,10.77
2023-05-09T04:46:23.626Z,10.79
2023-05-09T04:46:58.282Z,10.81
2023-05-09T04:47:33.152Z,10.83
2023-05-09T04:48:08.109Z,10.85
2023-05-09T04:48:40.581Z,10.86
2023-05-09T04:49:15.368Z,10.89
2023-05-09T04:49:47.560Z,10.89
2023-05-09T04:50:20.130Z,10.90
2023-05-09T04:50:54.866Z,10.93
2023-05-09T04:51:27.073Z,10.94
2023-05-09T04:51:59.213Z,10.96
2023-05-09T04:52:31.476Z,10.96
2023-05-09T04:53:08.597Z,10.98
2023-05-09T04:53:41.236Z,10.99
2023-05-09T04:54:13.458Z,11.00
2023-05-09T04:54:49.182Z,11.01
2023-05-09T04:55:24.113Z,11.01
2023-05-09T04:55:57.006Z,11.03
2023-05-09T04:56:32.215Z,11.03
2023-05-09T04:57:17.463Z,11.04
2023-05-09T04:57:54.849Z,11.05
2023-05-09T04:58:27.244Z,11.06
2023-05-09T04:59:01.718Z,11.08
2023-05-09T04:59:37.537Z,11.10
2023-05-09T05:00:12.699Z,11.11
2023-05-09T05:00:45.722Z,11.11
2023-05-09T05:01:20.658Z,11.13
2023-05-09T05:01:52.867Z,11.12
2023-05-09T05:02:26.848Z,11.13
2023-05-09T05:03:02.224Z,11.15
2023-05-09T05:03:38.381Z,11.17
2023-05-09T05:04:11.584Z,11.19
2023-05-09T05:04:46.378Z,11.21
2023-05-09T05:05:24.706Z,11.22
2023-05-09T05:05:58.317Z,11.23
2023-05-09T05:06:33.267Z,11.26
2023-05-09T05:07:05.937Z,11.26
2023-05-09T05:07:38.225Z,11.29
2023-05-09T05:08:13.579Z,11.30
2023-05-09T05:08:47.107Z,11.30
2023-05-09T05:09:19.966Z,11.34
2023-05-09T05:09:54.968Z,11.36
2023-05-09T05:10:27.721Z,11.38
2023-05-09T05:11:07.678Z,11.40
2023-05-09T05:11:53.228Z,11.42
2023-05-09T05:12:31.181Z,11.43
2023-05-09T05:13:06.625Z,11.50
2023-05-09T05:13:40.366Z,11.49
2023-05-09T05:14:12.921Z,11.53
2023-05-09T05:14:47.690Z,11.54
2023-05-09T05:15:23.892Z,11.57
2023-05-09T05:15:56.697Z,11.61
2023-05-09T05:16:31.508Z,11.64
2023-05-09T05:17:03.759Z,11.64
2023-05-09T05:17:36.376Z,11.66
2023-05-09T05:18:12.994Z,11.67
2023-05-09T05:18:48.221Z,11.68
2023-05-09T05:19:23.213Z,11.69
2023-05-09T05:19:56.302Z,11.70
2023-05-09T05:20:28.750Z,11.71
2023-05-09T05:21:03.793Z,11.73
2023-05-09T05:21:35.950Z,11.75
2023-05-09T05:22:08.199Z,11.76
2023-05-09T05:22:45.334Z,11.77
2023-05-09T05:23:18.499Z,11.78
2023-05-09T05:23:50.845Z,11.79
2023-05-09T05:24:25.580Z,11.81
2023-05-09T05:24:58.485Z,11.82
2023-05-09T05:25:33.631Z,11.81
2023-05-09T05:26:06.791Z,11.86
2023-05-09T05:26:40.551Z,11.87
2023-05-09T05:27:15.409Z,11.89
2023-05-09T05:27:47.644Z,11.93
2023-05-09T05:28:19.962Z,11.96
2023-05-09T05:28:55.663Z,11.99
2023-05-09T05:29:28.132Z,12.00
2023-05-09T05:30:00.659Z,12.03
2023-05-09T05:30:35.449Z,12.06
2023-05-09T05:31:08.100Z,12.08
2023-05-09T05:31:40.268Z,12.10
2023-05-09T05:32:15.428Z,12.13
2023-05-09T05:32:47.716Z,12.14
2023-05-09T05:33:22.862Z,12.15
2023-05-09T05:34:00.774Z,12.17
2023-05-09T05:34:33.198Z,12.17
2023-05-09T05:35:06.542Z,12.18
2023-05-09T05:35:43.923Z,12.19
2023-05-09T05:36:16.214Z,12.21
2023-05-09T05:36:50.950Z,12.23
2023-05-09T05:37:23.194Z,12.24
2023-05-09T05:37:55.666Z,12.24
2023-05-09T05:38:30.867Z,12.24
2023-05-09T05:39:04.688Z,12.23
2023-05-09T05:39:37.111Z,12.23
2023-05-09T05:40:12.965Z,12.25
2023-05-09T05:40:48.565Z,12.24
2023-05-09T05:41:21.059Z,12.25
2023-05-09T05:41:57.046Z,12.28
2023-05-09T05:42:29.265Z,12.29
2023-05-09T05:43:04.080Z,12.31
2023-05-09T05:43:38.506Z,12.32
2023-05-09T05:44:11.284Z,12.33
2023-05-09T05:44:46.498Z,12.35
2023-05-09T05:45:19.070Z,12.36
2023-05-09T05:45:55.983Z,12.38
2023-05-09T05:46:32.147Z,12.37
2023-05-09T05:47:04.625Z,12.38
2023-05-09T05:47:37.769Z,12.39
2023-05-09T05:48:12.832Z,12.41
2023-05-09T05:48:45.025Z,12.42
2023-05-09T05:49:19.859Z,12.42
2023-05-09T05:49:54.587Z,12.46
2023-05-09T05:50:26.862Z,12.48
2023-05-09T05:50:59.250Z,12.53
2023-05-09T05:51:37.561Z,12.52
2023-05-09T05:52:11.363Z,12.54
2023-05-09T05:52:43.885Z,12.57
2023-05-09T05:53:21.582Z,12.59
2023-05-09T05:53:55.503Z,12.62
2023-05-09T05:54:30.795Z,12.64
2023-05-09T05:55:03.550Z,12.65
2023-05-09T05:55:35.763Z,12.68
2023-05-09T05:56:11.038Z,12.70
2023-05-09T05:56:43.383Z,12.74
2023-05-09T05:57:16.182Z,12.76
2023-05-09T05:57:51.444Z,12.79
2023-05-09T05:58:24.737Z,12.82
2023-05-09T05:58:57.298Z,12.85
2023-05-09T05:59:32.049Z,12.89
2023-05-09T06:00:06.671Z,12.92
2023-05-09T06:00:46.148Z,12.93
2023-05-09T06:01:21.557Z,12.97
2023-05-09T06:01:53.797Z,12.99
2023-05-09T06:02:29.528Z,13.03
2023-05-09T06:03:01.757Z,13.04
2023-05-09T06:03:43.461Z,13.07
2023-05-09T06:04:15.807Z,13.09
2023-05-09T06:04:55.863Z,13.10
2023-05-09T06:05:28.409Z,13.07
2023-05-09T06:06:00.745Z,13.08
2023-05-09T06:06:35.615Z,13.08
2023-05-09T06:07:07.975Z,13.09
2023-05-09T06:07:41.260Z,13.13
2023-05-09T06:08:17.026Z,13.13
2023-05-09T06:08:50.176Z,13.15
2023-05-09T06:09:22.444Z,13.17
2023-05-09T06:09:58.039Z,13.19
2023-05-09T06:10:30.232Z,13.20
2023-05-09T06:11:02.613Z,13.22
2023-05-09T06:11:37.651Z,13.24
2023-05-09T06:12:09.917Z,13.27
2023-05-09T06:12:42.218Z,13.29
2023-05-09T06:13:17.197Z,13.32
2023-05-09T06:13:54.069Z,13.34
2023-05-09T06:14:26.322Z,13.35
2023-05-09T06:15:01.670Z,13.36
2023-05-09T06:15:34.005Z,13.37
2023-05-09T06:16:45.144Z,13.40
2023-05-09T06:17:18.038Z,13.42
2023-05-09T06:17:53.028Z,13.44
2023-05-09T06:18:25.279Z,13.47
2023-05-09T06:19:00.029Z,13.48
2023-05-09T06:19:32.161Z,13.48
2023-05-09T06:20:08.134Z,13.48
2023-05-09T06:20:42.988Z,13.50
2023-05-09T06:21:15.222Z,13.48
2023-05-09T06:21:49.984Z,13.47
2023-05-09T06:22:22.173Z,13.47
2023-05-09T06:22:54.396Z,13.47
2023-05-09T06:23:29.257Z,13.47
2023-05-09T06:24:09.724Z,13.47
2023-05-09T06:24:46.818Z,13.47
2023-05-09T06:25:19.152Z,13.47
2023-05-09T06:25:51.274Z,13.47
2023-05-09T06:26:26.423Z,13.46
2023-05-09T06:26:58.776Z,13.47
2023-05-09T06:27:31.076Z,13.48
2023-05-09T06:28:06.213Z,13.50
2023-05-09T06:28:38.923Z,13.52
2023-05-09T06:29:15.365Z,13.54
2023-05-09T06:29:47.531Z,13.54
2023-05-09T06:30:26.295Z,13.56
2023-05-09T06:30:59.340Z,13.56
2023-05-09T06:31:36.055Z,13.59
2023-05-09T06:32:08.313Z,13.61
2023-05-09T06:32:40.614Z,13.63
2023-05-09T06:33:15.414Z,13.66
2023-05-09T06:33:47.639Z,13.68
2023-05-09T06:34:19.848Z,13.68
2023-05-09T06:34:54.687Z,13.68
2023-05-09T06:35:29.408Z,13.68
2023-05-09T06:36:04.196Z,13.69
2023-05-09T06:36:36.359Z,13.70
2023-05-09T06:37:08.514Z,13.71
2023-05-09T06:37:43.331Z,13.72
2023-05-09T06:38:15.521Z,13.71
2023-05-09T06:38:50.295Z,13.72
2023-05-09T06:39:22.435Z,13.72
2023-05-09T06:39:57.799Z,13.72
2023-05-09T06:40:30.027Z,13.69
2023-05-09T06:41:02.233Z,13.71
2023-05-09T06:41:36.979Z,13.70
2023-05-09T06:42:09.782Z,13.70
2023-05-09T06:42:44.537Z,13.69
2023-05-09T06:43:19.391Z,13.69
2023-05-09T06:43:51.621Z,13.69
2023-05-09T06:44:23.780Z,13.70
2023-05-09T06:44:58.570Z,13.70
2023-05-09T06:45:31.044Z,13.71
2023-05-09T06:46:03.403Z,13.72
2023-05-09T06:46:38.228Z,13.75
2023-05-09T06:47:10.937Z,13.77
2023-05-09T06:47:43.175Z,13.77
2023-05-09T06:48:17.874Z,13.79
2023-05-09T06:48:50.165Z,13.79
2023-05-09T06:49:22.336Z,13.82
2023-05-09T06:49:57.048Z,13.82
2023-05-09T06:50:32.876Z,13.86
2023-05-09T06:51:08.443Z,13.88
2023-05-09T06:51:40.811Z,13.89
2023-05-09T06:52:15.865Z,13.90
2023-05-09T06:52:50.721Z,13.93
2023-05-09T06:53:22.905Z,13.97
2023-05-09T06:53:57.613Z,14.00
2023-05-09T06:54:29.856Z,14.02
2023-05-09T06:55:02.095Z,14.05
2023-05-09T06:55:36.955Z,14.08
2023-05-09T06:56:09.179Z,14.12
2023-05-09T06:56:41.544Z,14.16
2023-05-09T06:57:16.448Z,14.18
2023-05-09T06:57:48.645Z,14.21
2023-05-09T06:58:20.920Z,14.24
2023-05-09T06:58:55.892Z,14.26
2023-05-09T06:59:28.136Z,14.29
2023-05-09T07:00:02.996Z,14.32
2023-05-09T07:00:35.197Z,14.33
2023-05-09T07:01:10.176Z,14.33
2023-05-09T07:01:42.581Z,14.31
2023-05-09T07:02:14.808Z,14.32
2023-05-09T07:02:49.625Z,14.32
2023-05-09T07:03:21.765Z,14.33
2023-05-09T07:03:53.913Z,14.34
2023-05-09T07:04:28.723Z,14.37
2023-05-09T07:05:00.945Z,14.37
2023-05-09T07:05:35.962Z,14.39
2023-05-09T07:06:11.614Z,14.40
2023-05-09T07:06:43.770Z,14.41
2023-05-09T07:07:16.484Z,14.44
2023-05-09T07:07:51.382Z,14.44
2023-05-09T07:08:23.598Z,14.45
2023-05-09T07:08:55.899Z,14.46
2023-05-09T07:09:30.820Z,14.48
2023-05-09T07:10:11.246Z,14.48
2023-05-09T07:10:47.003Z,14.47
2023-05-09T07:11:19.327Z,14.47
2023-05-09T07:11:51.486Z,14.46
2023-05-09T07:12:26.195Z,14.43
2023-05-09T07:12:58.720Z,14.41
2023-05-09T07:13:33.500Z,14.41
2023-05-09T07:14:05.865Z,14.39
2023-05-09T07:14:38.384Z,14.39
2023-05-09T07:15:14.661Z,14.37
2023-05-09T07:15:50.799Z,14.36
2023-05-09T07:16:25.782Z,14.38
2023-05-09T07:17:09.936Z,14.38
2023-05-09T07:17:52.913Z,14.36
2023-05-09T07:18:25.118Z,14.39
2023-05-09T07:18:57.284Z,14.41
2023-05-09T07:19:32.050Z,14.42
2023-05-09T07:20:05.108Z,14.44
2023-05-09T07:20:42.443Z,14.44
2023-05-09T07:21:14.648Z,14.44
2023-05-09T07:21:46.801Z,14.45
2023-05-09T07:22:21.827Z,14.48
2023-05-09T07:22:54.002Z,14.48
2023-05-09T07:23:28.920Z,14.49
2023-05-09T07:24:01.126Z,14.51
2023-05-09T07:24:35.871Z,14.53
2023-05-09T07:25:09.330Z,14.54
2023-05-09T07:25:44.109Z,14.55
2023-05-09T07:26:16.359Z,14.54
2023-05-09T07:26:51.115Z,14.55
2023-05-09T07:27:23.335Z,14.55
2023-05-09T07:27:55.592Z,14.55
2023-05-09T07:28:30.562Z,14.56
2023-05-09T07:29:02.835Z,14.56
2023-05-09T07:29:35.004Z,14.57
2023-05-09T07:30:11.014Z,14.56
2023-05-09T07:30:43.900Z,14.54
2023-05-09T07:31:16.060Z,14.53
2023-05-09T07:31:50.852Z,14.53
2023-05-09T07:32:23.047Z,14.54
2023-05-09T07:32:55.212Z,14.55
2023-05-09T07:33:30.050Z,14.55
2023-05-09T07:34:02.270Z,14.54
2023-05-09T07:34:34.520Z,14.52